sensor_id;sensor_type;location;lat;lon;timestamp;P1;durP1;ratioP1;P2;durP2;ratioP2
63567;SDS011;49715;42.386;20.434;2022-07-29T00:02:22;13.73;;;7.07;;
63567;SDS011;49715;42.386;20.434;2022-07-29T00:04:49;9.57;;;6.50;;
63567;SDS011;49715;42.386;20.434;2022-07-29T00:07:15;13.75;;;7.68;;
63567;SDS011;49715;42.386;20.434;2022-07-29T00:09:42;13.35;;;7.43;;
63567;SDS011;49715;42.386;20.434;2022-07-29T00:12:09;10.10;;;5.72;;
63567;SDS011;49715;42.386;20.434;2022-07-29T00:14:35;11.98;;;6.82;;
63567;SDS011;49715;42.386;20.434;2022-07-29T00:17:02;9.18;;;6.18;;
63567;SDS011;49715;42.386;20.434;2022-07-29T00:19:28;6.97;;;6.07;;
63567;SDS011;49715;42.386;20.434;2022-07-29T00:21:55;8.32;;;5.88;;
63567;SDS011;49715;42.386;20.434;2022-07-29T00:24:22;7.72;;;6.00;;
63567;SDS011;49715;42.386;20.434;2022-07-29T00:26:48;9.82;;;5.93;;
63567;SDS011;49715;42.386;20.434;2022-07-29T00:29:15;12.18;;;6.25;;
63567;SDS011;49715;42.386;20.434;2022-07-29T00:31:41;9.85;;;6.15;;
63567;SDS011;49715;42.386;20.434;2022-07-29T00:34:07;7.97;;;5.85;;
63567;SDS011;49715;42.386;20.434;2022-07-29T00:39:20;7.53;;;5.47;;
63567;SDS011;49715;42.386;20.434;2022-07-29T00:41:46;10.48;;;6.03;;
63567;SDS011;49715;42.386;20.434;2022-07-29T00:44:13;7.10;;;5.68;;
63567;SDS011;49715;42.386;20.434;2022-07-29T00:46:39;6.70;;;5.53;;
63567;SDS011;49715;42.386;20.434;2022-07-29T00:49:06;10.68;;;6.85;;
63567;SDS011;49715;42.386;20.434;2022-07-29T00:51:35;14.43;;;7.38;;
63567;SDS011;49715;42.386;20.434;2022-07-29T00:54:03;17.85;;;8.32;;
63567;SDS011;49715;42.386;20.434;2022-07-29T00:56:31;19.20;;;8.55;;
63567;SDS011;49715;42.386;20.434;2022-07-29T00:58:58;16.63;;;9.20;;
63567;SDS011;49715;42.386;20.434;2022-07-29T01:01:26;16.90;;;8.20;;
63567;SDS011;49715;42.386;20.434;2022-07-29T01:03:54;13.73;;;7.80;;
63567;SDS011;49715;42.386;20.434;2022-07-29T01:06:20;12.00;;;7.30;;
63567;SDS011;49715;42.386;20.434;2022-07-29T01:08:48;14.52;;;7.55;;
63567;SDS011;49715;42.386;20.434;2022-07-29T01:11:15;15.27;;;8.23;;
63567;SDS011;49715;42.386;20.434;2022-07-29T01:13:43;11.88;;;7.72;;
63567;SDS011;49715;42.386;20.434;2022-07-29T01:16:19;12.27;;;7.95;;
63567;SDS011;49715;42.386;20.434;2022-07-29T01:18:52;11.70;;;6.82;;
63567;SDS011;49715;42.386;20.434;2022-07-29T01:29:58;23.48;;;8.50;;
63567;SDS011;49715;42.386;20.434;2022-07-29T01:32:29;11.98;;;7.38;;
63567;SDS011;49715;42.386;20.434;2022-07-29T01:43:21;18.17;;;7.55;;
63567;SDS011;49715;42.386;20.434;2022-07-29T01:45:56;15.00;;;7.57;;
63567;SDS011;49715;42.386;20.434;2022-07-29T01:48:29;10.75;;;6.80;;
63567;SDS011;49715;42.386;20.434;2022-07-29T01:51:17;15.18;;;8.13;;
63567;SDS011;49715;42.386;20.434;2022-07-29T01:53:47;11.63;;;7.63;;
63567;SDS011;49715;42.386;20.434;2022-07-29T01:56:20;11.52;;;7.95;;
63567;SDS011;49715;42.386;20.434;2022-07-29T01:58:50;10.55;;;7.70;;
63567;SDS011;49715;42.386;20.434;2022-07-29T02:01:19;11.80;;;7.60;;
63567;SDS011;49715;42.386;20.434;2022-07-29T02:03:47;12.30;;;7.30;;
63567;SDS011;49715;42.386;20.434;2022-07-29T02:06:17;12.88;;;7.80;;
63567;SDS011;49715;42.386;20.434;2022-07-29T02:08:48;16.00;;;8.48;;
63567;SDS011;49715;42.386;20.434;2022-07-29T02:11:17;15.60;;;8.15;;
63567;SDS011;49715;42.386;20.434;2022-07-29T02:13:44;15.77;;;8.02;;
63567;SDS011;49715;42.386;20.434;2022-07-29T02:16:13;16.83;;;8.45;;
63567;SDS011;49715;42.386;20.434;2022-07-29T02:18:43;17.52;;;7.97;;
63567;SDS011;49715;42.386;20.434;2022-07-29T02:21:12;13.57;;;7.32;;
63567;SDS011;49715;42.386;20.434;2022-07-29T02:23:42;10.40;;;7.15;;
63567;SDS011;49715;42.386;20.434;2022-07-29T02:26:10;7.53;;;6.82;;
63567;SDS011;49715;42.386;20.434;2022-07-29T02:28:38;8.77;;;6.45;;
63567;SDS011;49715;42.386;20.434;2022-07-29T02:31:06;9.55;;;7.00;;
63567;SDS011;49715;42.386;20.434;2022-07-29T02:33:33;7.80;;;6.97;;
63567;SDS011;49715;42.386;20.434;2022-07-29T02:36:00;8.57;;;7.40;;
63567;SDS011;49715;42.386;20.434;2022-07-29T02:38:28;11.52;;;7.55;;
63567;SDS011;49715;42.386;20.434;2022-07-29T02:41:29;14.25;;;11.63;;
63567;SDS011;49715;42.386;20.434;2022-07-29T02:44:08;18.65;;;13.23;;
63567;SDS011;49715;42.386;20.434;2022-07-29T02:46:38;22.10;;;15.65;;
63567;SDS011;49715;42.386;20.434;2022-07-29T02:52:00;21.58;;;17.10;;
63567;SDS011;49715;42.386;20.434;2022-07-29T02:54:51;22.08;;;16.30;;
63567;SDS011;49715;42.386;20.434;2022-07-29T02:59:48;15.13;;;11.48;;
63567;SDS011;49715;42.386;20.434;2022-07-29T03:02:17;16.02;;;13.55;;
63567;SDS011;49715;42.386;20.434;2022-07-29T03:04:44;16.80;;;12.82;;
63567;SDS011;49715;42.386;20.434;2022-07-29T03:07:13;15.63;;;12.70;;
63567;SDS011;49715;42.386;20.434;2022-07-29T03:09:44;18.02;;;11.77;;
63567;SDS011;49715;42.386;20.434;2022-07-29T03:12:12;14.20;;;10.43;;
63567;SDS011;49715;42.386;20.434;2022-07-29T03:14:42;15.38;;;9.73;;
63567;SDS011;49715;42.386;20.434;2022-07-29T03:17:09;15.45;;;9.00;;
63567;SDS011;49715;42.386;20.434;2022-07-29T03:19:37;13.23;;;8.73;;
63567;SDS011;49715;42.386;20.434;2022-07-29T03:22:03;9.82;;;8.25;;
63567;SDS011;49715;42.386;20.434;2022-07-29T03:24:31;12.13;;;8.90;;
63567;SDS011;49715;42.386;20.434;2022-07-29T03:26:59;16.65;;;9.73;;
63567;SDS011;49715;42.386;20.434;2022-07-29T03:29:27;11.38;;;9.32;;
63567;SDS011;49715;42.386;20.434;2022-07-29T03:31:54;15.40;;;9.00;;
63567;SDS011;49715;42.386;20.434;2022-07-29T03:36:47;12.77;;;9.05;;
63567;SDS011;49715;42.386;20.434;2022-07-29T03:39:21;10.93;;;8.85;;
63567;SDS011;49715;42.386;20.434;2022-07-29T03:41:52;13.80;;;8.43;;
63567;SDS011;49715;42.386;20.434;2022-07-29T03:44:20;13.82;;;9.00;;
63567;SDS011;49715;42.386;20.434;2022-07-29T03:46:48;14.27;;;9.65;;
63567;SDS011;49715;42.386;20.434;2022-07-29T03:49:16;13.02;;;9.73;;
63567;SDS011;49715;42.386;20.434;2022-07-29T03:51:46;12.73;;;9.65;;
63567;SDS011;49715;42.386;20.434;2022-07-29T03:54:13;12.57;;;9.30;;
63567;SDS011;49715;42.386;20.434;2022-07-29T03:56:41;13.00;;;9.35;;
63567;SDS011;49715;42.386;20.434;2022-07-29T03:59:12;15.95;;;10.40;;
63567;SDS011;49715;42.386;20.434;2022-07-29T04:01:41;15.82;;;9.55;;
63567;SDS011;49715;42.386;20.434;2022-07-29T04:04:09;16.48;;;9.82;;
63567;SDS011;49715;42.386;20.434;2022-07-29T04:06:39;30.25;;;11.40;;
63567;SDS011;49715;42.386;20.434;2022-07-29T04:09:08;24.08;;;11.07;;
63567;SDS011;49715;42.386;20.434;2022-07-29T04:11:35;19.05;;;11.23;;
63567;SDS011;49715;42.386;20.434;2022-07-29T04:14:02;19.38;;;10.90;;
63567;SDS011;49715;42.386;20.434;2022-07-29T04:16:28;21.85;;;13.27;;
63567;SDS011;49715;42.386;20.434;2022-07-29T04:18:55;26.45;;;15.20;;
63567;SDS011;49715;42.386;20.434;2022-07-29T04:21:21;20.75;;;13.98;;
63567;SDS011;49715;42.386;20.434;2022-07-29T04:23:47;16.90;;;12.50;;
63567;SDS011;49715;42.386;20.434;2022-07-29T04:26:16;18.20;;;11.10;;
63567;SDS011;49715;42.386;20.434;2022-07-29T04:28:43;24.38;;;10.18;;
63567;SDS011;49715;42.386;20.434;2022-07-29T04:31:09;15.77;;;9.88;;
63567;SDS011;49715;42.386;20.434;2022-07-29T04:33:38;19.45;;;10.60;;
63567;SDS011;49715;42.386;20.434;2022-07-29T04:36:05;16.63;;;9.77;;
63567;SDS011;49715;42.386;20.434;2022-07-29T04:38:32;17.70;;;10.93;;
63567;SDS011;49715;42.386;20.434;2022-07-29T04:40:58;19.75;;;10.63;;
63567;SDS011;49715;42.386;20.434;2022-07-29T04:43:25;15.82;;;11.07;;
63567;SDS011;49715;42.386;20.434;2022-07-29T04:45:51;26.58;;;11.35;;
63567;SDS011;49715;42.386;20.434;2022-07-29T04:48:17;23.33;;;11.18;;
63567;SDS011;49715;42.386;20.434;2022-07-29T04:50:44;33.35;;;11.60;;
63567;SDS011;49715;42.386;20.434;2022-07-29T04:53:10;34.63;;;12.38;;
63567;SDS011;49715;42.386;20.434;2022-07-29T04:55:36;31.58;;;11.85;;
63567;SDS011;49715;42.386;20.434;2022-07-29T04:58:03;30.80;;;11.98;;
63567;SDS011;49715;42.386;20.434;2022-07-29T05:00:29;33.33;;;11.85;;
63567;SDS011;49715;42.386;20.434;2022-07-29T05:02:56;29.50;;;11.70;;
63567;SDS011;49715;42.386;20.434;2022-07-29T05:05:22;31.13;;;11.25;;
63567;SDS011;49715;42.386;20.434;2022-07-29T05:07:48;23.27;;;9.10;;
63567;SDS011;49715;42.386;20.434;2022-07-29T05:10:15;15.43;;;9.43;;
63567;SDS011;49715;42.386;20.434;2022-07-29T05:15:08;15.10;;;8.70;;
63567;SDS011;49715;42.386;20.434;2022-07-29T05:17:35;16.23;;;11.70;;
63567;SDS011;49715;42.386;20.434;2022-07-29T05:20:01;21.15;;;12.85;;
63567;SDS011;49715;42.386;20.434;2022-07-29T05:22:28;12.68;;;9.57;;
63567;SDS011;49715;42.386;20.434;2022-07-29T05:24:54;14.95;;;10.85;;
63567;SDS011;49715;42.386;20.434;2022-07-29T05:27:21;16.60;;;11.45;;
63567;SDS011;49715;42.386;20.434;2022-07-29T05:29:48;17.50;;;9.50;;
63567;SDS011;49715;42.386;20.434;2022-07-29T05:32:14;11.05;;;8.65;;
63567;SDS011;49715;42.386;20.434;2022-07-29T05:34:41;12.63;;;9.95;;
63567;SDS011;49715;42.386;20.434;2022-07-29T05:39:34;11.40;;;7.93;;
63567;SDS011;49715;42.386;20.434;2022-07-29T05:42:00;15.38;;;9.13;;
63567;SDS011;49715;42.386;20.434;2022-07-29T05:44:27;17.23;;;10.43;;
63567;SDS011;49715;42.386;20.434;2022-07-29T05:46:53;17.15;;;10.05;;
63567;SDS011;49715;42.386;20.434;2022-07-29T05:51:48;17.40;;;11.35;;
63567;SDS011;49715;42.386;20.434;2022-07-29T05:54:15;18.77;;;11.20;;
63567;SDS011;49715;42.386;20.434;2022-07-29T05:56:42;13.88;;;10.95;;
63567;SDS011;49715;42.386;20.434;2022-07-29T05:59:09;17.58;;;10.70;;
63567;SDS011;49715;42.386;20.434;2022-07-29T06:01:35;18.33;;;10.13;;
63567;SDS011;49715;42.386;20.434;2022-07-29T06:04:06;13.25;;;8.20;;
63567;SDS011;49715;42.386;20.434;2022-07-29T06:06:33;11.20;;;7.63;;
63567;SDS011;49715;42.386;20.434;2022-07-29T06:09:00;11.35;;;6.57;;
63567;SDS011;49715;42.386;20.434;2022-07-29T06:11:27;10.73;;;7.72;;
63567;SDS011;49715;42.386;20.434;2022-07-29T06:13:53;10.80;;;7.13;;
63567;SDS011;49715;42.386;20.434;2022-07-29T06:16:20;12.00;;;7.68;;
63567;SDS011;49715;42.386;20.434;2022-07-29T06:18:46;13.68;;;7.30;;
63567;SDS011;49715;42.386;20.434;2022-07-29T06:21:13;9.13;;;7.13;;
63567;SDS011;49715;42.386;20.434;2022-07-29T06:23:40;13.02;;;7.97;;
63567;SDS011;49715;42.386;20.434;2022-07-29T06:26:06;10.43;;;7.80;;
63567;SDS011;49715;42.386;20.434;2022-07-29T06:28:33;8.77;;;6.50;;
63567;SDS011;49715;42.386;20.434;2022-07-29T06:31:00;15.52;;;7.97;;
63567;SDS011;49715;42.386;20.434;2022-07-29T06:33:26;16.85;;;8.13;;
63567;SDS011;49715;42.386;20.434;2022-07-29T06:35:53;9.10;;;6.97;;
63567;SDS011;49715;42.386;20.434;2022-07-29T06:38:21;12.52;;;7.85;;
63567;SDS011;49715;42.386;20.434;2022-07-29T06:40:48;11.73;;;7.38;;
63567;SDS011;49715;42.386;20.434;2022-07-29T06:43:30;10.23;;;7.57;;
63567;SDS011;49715;42.386;20.434;2022-07-29T06:46:06;13.48;;;7.60;;
63567;SDS011;49715;42.386;20.434;2022-07-29T06:48:36;10.63;;;7.13;;
63567;SDS011;49715;42.386;20.434;2022-07-29T06:51:03;10.65;;;7.93;;
63567;SDS011;49715;42.386;20.434;2022-07-29T06:53:31;12.00;;;7.72;;
63567;SDS011;49715;42.386;20.434;2022-07-29T06:55:59;13.88;;;7.45;;
63567;SDS011;49715;42.386;20.434;2022-07-29T06:58:27;10.80;;;7.35;;
63567;SDS011;49715;42.386;20.434;2022-07-29T07:00:56;14.32;;;7.10;;
63567;SDS011;49715;42.386;20.434;2022-07-29T07:03:24;13.77;;;7.70;;
63567;SDS011;49715;42.386;20.434;2022-07-29T07:05:52;8.27;;;6.95;;
63567;SDS011;49715;42.386;20.434;2022-07-29T07:08:19;10.73;;;6.78;;
63567;SDS011;49715;42.386;20.434;2022-07-29T07:10:49;13.15;;;7.53;;
63567;SDS011;49715;42.386;20.434;2022-07-29T07:13:16;10.02;;;7.07;;
63567;SDS011;49715;42.386;20.434;2022-07-29T07:15:46;13.90;;;8.20;;
63567;SDS011;49715;42.386;20.434;2022-07-29T07:18:14;10.93;;;7.72;;
63567;SDS011;49715;42.386;20.434;2022-07-29T07:20:42;13.63;;;7.30;;
63567;SDS011;49715;42.386;20.434;2022-07-29T07:23:09;12.38;;;7.70;;
63567;SDS011;49715;42.386;20.434;2022-07-29T07:28:02;13.68;;;7.47;;
63567;SDS011;49715;42.386;20.434;2022-07-29T07:30:29;13.30;;;7.57;;
63567;SDS011;49715;42.386;20.434;2022-07-29T07:32:56;10.20;;;7.47;;
63567;SDS011;49715;42.386;20.434;2022-07-29T07:35:23;12.30;;;7.63;;
63567;SDS011;49715;42.386;20.434;2022-07-29T07:40:17;14.80;;;8.00;;
63567;SDS011;49715;42.386;20.434;2022-07-29T07:42:43;11.48;;;7.50;;
63567;SDS011;49715;42.386;20.434;2022-07-29T07:45:10;10.48;;;7.70;;
63567;SDS011;49715;42.386;20.434;2022-07-29T07:47:37;13.40;;;7.15;;
63567;SDS011;49715;42.386;20.434;2022-07-29T07:50:06;12.40;;;7.30;;
63567;SDS011;49715;42.386;20.434;2022-07-29T07:52:34;12.93;;;7.32;;
63567;SDS011;49715;42.386;20.434;2022-07-29T07:55:11;13.43;;;7.85;;
63567;SDS011;49715;42.386;20.434;2022-07-29T07:57:37;17.63;;;8.25;;
63567;SDS011;49715;42.386;20.434;2022-07-29T08:00:04;9.40;;;7.30;;
63567;SDS011;49715;42.386;20.434;2022-07-29T08:02:51;11.48;;;7.65;;
63567;SDS011;49715;42.386;20.434;2022-07-29T08:05:18;13.45;;;7.30;;
63567;SDS011;49715;42.386;20.434;2022-07-29T08:07:45;9.38;;;7.68;;
63567;SDS011;49715;42.386;20.434;2022-07-29T08:10:16;12.60;;;8.43;;
63567;SDS011;49715;42.386;20.434;2022-07-29T08:13:03;11.40;;;7.55;;
63567;SDS011;49715;42.386;20.434;2022-07-29T08:15:30;13.73;;;8.07;;
63567;SDS011;49715;42.386;20.434;2022-07-29T08:20:26;10.70;;;7.75;;
63567;SDS011;49715;42.386;20.434;2022-07-29T08:22:54;11.52;;;8.20;;
63567;SDS011;49715;42.386;20.434;2022-07-29T08:25:20;11.63;;;7.55;;
63567;SDS011;49715;42.386;20.434;2022-07-29T08:27:47;11.32;;;7.30;;
63567;SDS011;49715;42.386;20.434;2022-07-29T08:30:18;11.32;;;8.30;;
63567;SDS011;49715;42.386;20.434;2022-07-29T08:32:44;12.88;;;7.45;;
63567;SDS011;49715;42.386;20.434;2022-07-29T08:35:11;13.27;;;7.25;;
63567;SDS011;49715;42.386;20.434;2022-07-29T08:40:04;11.27;;;7.20;;
63567;SDS011;49715;42.386;20.434;2022-07-29T08:42:32;12.35;;;7.60;;
63567;SDS011;49715;42.386;20.434;2022-07-29T08:47:25;7.65;;;6.63;;
63567;SDS011;49715;42.386;20.434;2022-07-29T08:49:53;13.82;;;7.47;;
63567;SDS011;49715;42.386;20.434;2022-07-29T08:52:20;12.95;;;7.38;;
63567;SDS011;49715;42.386;20.434;2022-07-29T08:54:50;14.30;;;7.07;;
63567;SDS011;49715;42.386;20.434;2022-07-29T08:57:19;11.10;;;7.70;;
63567;SDS011;49715;42.386;20.434;2022-07-29T09:00:06;10.27;;;7.40;;
63567;SDS011;49715;42.386;20.434;2022-07-29T09:02:39;8.77;;;7.20;;
63567;SDS011;49715;42.386;20.434;2022-07-29T09:05:08;11.88;;;7.50;;
63567;SDS011;49715;42.386;20.434;2022-07-29T09:07:35;10.55;;;6.82;;
63567;SDS011;49715;42.386;20.434;2022-07-29T09:10:03;8.50;;;7.35;;
63567;SDS011;49715;42.386;20.434;2022-07-29T09:12:34;8.10;;;7.13;;
63567;SDS011;49715;42.386;20.434;2022-07-29T09:15:00;8.07;;;7.15;;
63567;SDS011;49715;42.386;20.434;2022-07-29T09:20:19;11.43;;;7.43;;
63567;SDS011;49715;42.386;20.434;2022-07-29T09:22:47;9.18;;;7.30;;
63567;SDS011;49715;42.386;20.434;2022-07-29T09:25:36;15.43;;;7.82;;
63567;SDS011;49715;42.386;20.434;2022-07-29T09:28:10;10.13;;;7.45;;
63567;SDS011;49715;42.386;20.434;2022-07-29T09:33:20;10.45;;;7.28;;
63567;SDS011;49715;42.386;20.434;2022-07-29T09:35:58;13.25;;;7.18;;
63567;SDS011;49715;42.386;20.434;2022-07-29T09:38:35;15.52;;;7.85;;
63567;SDS011;49715;42.386;20.434;2022-07-29T09:41:04;10.88;;;7.50;;
63567;SDS011;49715;42.386;20.434;2022-07-29T09:43:32;12.52;;;7.63;;
63567;SDS011;49715;42.386;20.434;2022-07-29T09:46:11;11.05;;;7.40;;
63567;SDS011;49715;42.386;20.434;2022-07-29T09:48:38;12.63;;;8.02;;
63567;SDS011;49715;42.386;20.434;2022-07-29T09:56:02;14.98;;;7.78;;
63567;SDS011;49715;42.386;20.434;2022-07-29T09:58:32;12.25;;;7.53;;
63567;SDS011;49715;42.386;20.434;2022-07-29T10:01:01;11.65;;;7.43;;
63567;SDS011;49715;42.386;20.434;2022-07-29T10:03:28;11.18;;;8.10;;
63567;SDS011;49715;42.386;20.434;2022-07-29T10:08:34;14.95;;;7.68;;
63567;SDS011;49715;42.386;20.434;2022-07-29T10:11:11;12.02;;;8.52;;
63567;SDS011;49715;42.386;20.434;2022-07-29T10:13:42;10.15;;;7.38;;
63567;SDS011;49715;42.386;20.434;2022-07-29T10:16:11;10.95;;;7.20;;
63567;SDS011;49715;42.386;20.434;2022-07-29T10:18:40;13.88;;;7.68;;
63567;SDS011;49715;42.386;20.434;2022-07-29T10:21:07;8.82;;;7.10;;
63567;SDS011;49715;42.386;20.434;2022-07-29T10:23:35;9.32;;;7.18;;
63567;SDS011;49715;42.386;20.434;2022-07-29T10:26:02;10.05;;;7.15;;
63567;SDS011;49715;42.386;20.434;2022-07-29T10:28:31;9.50;;;7.32;;
63567;SDS011;49715;42.386;20.434;2022-07-29T10:31:02;10.30;;;7.15;;
63567;SDS011;49715;42.386;20.434;2022-07-29T10:40:31;8.77;;;6.63;;
63567;SDS011;49715;42.386;20.434;2022-07-29T10:43:29;9.70;;;6.82;;
63567;SDS011;49715;42.386;20.434;2022-07-29T10:46:02;8.43;;;6.70;;
63567;SDS011;49715;42.386;20.434;2022-07-29T10:48:29;10.23;;;6.85;;
63567;SDS011;49715;42.386;20.434;2022-07-29T10:50:59;10.82;;;6.00;;
63567;SDS011;49715;42.386;20.434;2022-07-29T11:28:51;7.85;;;6.03;;
63567;SDS011;49715;42.386;20.434;2022-07-29T11:31:39;10.73;;;6.47;;
63567;SDS011;49715;42.386;20.434;2022-07-29T11:34:25;10.80;;;6.47;;
63567;SDS011;49715;42.386;20.434;2022-07-29T11:39:40;10.63;;;6.05;;
63567;SDS011;49715;42.386;20.434;2022-07-29T11:45:01;10.18;;;6.10;;
63567;SDS011;49715;42.386;20.434;2022-07-29T11:50:12;9.05;;;5.95;;
63567;SDS011;49715;42.386;20.434;2022-07-29T11:52:44;7.22;;;5.50;;
63567;SDS011;49715;42.386;20.434;2022-07-29T11:55:16;8.52;;;5.32;;
63567;SDS011;49715;42.386;20.434;2022-07-29T11:57:53;8.85;;;5.95;;
63567;SDS011;49715;42.386;20.434;2022-07-29T12:00:23;10.85;;;5.80;;
63567;SDS011;49715;42.386;20.434;2022-07-29T12:03:07;9.13;;;5.40;;
63567;SDS011;49715;42.386;20.434;2022-07-29T12:05:39;9.32;;;5.47;;
63567;SDS011;49715;42.386;20.434;2022-07-29T12:08:18;8.35;;;5.72;;
63567;SDS011;49715;42.386;20.434;2022-07-29T12:10:48;9.98;;;5.22;;
63567;SDS011;49715;42.386;20.434;2022-07-29T12:13:17;6.55;;;5.78;;
63567;SDS011;49715;42.386;20.434;2022-07-29T12:15:54;7.05;;;5.28;;
63567;SDS011;49715;42.386;20.434;2022-07-29T12:18:27;7.45;;;5.57;;
63567;SDS011;49715;42.386;20.434;2022-07-29T12:20:57;9.43;;;5.70;;
63567;SDS011;49715;42.386;20.434;2022-07-29T12:23:25;6.00;;;5.40;;
63567;SDS011;49715;42.386;20.434;2022-07-29T12:25:52;7.72;;;4.90;;
63567;SDS011;49715;42.386;20.434;2022-07-29T12:28:18;8.77;;;5.25;;
63567;SDS011;49715;42.386;20.434;2022-07-29T12:30:48;5.75;;;5.15;;
63567;SDS011;49715;42.386;20.434;2022-07-29T12:33:17;8.15;;;4.82;;
63567;SDS011;49715;42.386;20.434;2022-07-29T12:35:46;7.60;;;5.40;;
63567;SDS011;49715;42.386;20.434;2022-07-29T12:38:16;5.70;;;4.60;;
63567;SDS011;49715;42.386;20.434;2022-07-29T12:40:43;6.68;;;4.97;;
63567;SDS011;49715;42.386;20.434;2022-07-29T12:45:40;7.60;;;4.43;;
63567;SDS011;49715;42.386;20.434;2022-07-29T12:48:09;6.32;;;4.78;;
63567;SDS011;49715;42.386;20.434;2022-07-29T12:50:36;7.65;;;4.35;;
63567;SDS011;49715;42.386;20.434;2022-07-29T12:53:18;8.43;;;4.95;;
63567;SDS011;49715;42.386;20.434;2022-07-29T12:55:46;5.72;;;4.70;;
63567;SDS011;49715;42.386;20.434;2022-07-29T12:58:38;10.27;;;4.38;;
63567;SDS011;49715;42.386;20.434;2022-07-29T13:14:08;5.80;;;4.15;;
63567;SDS011;49715;42.386;20.434;2022-07-29T13:16:36;5.80;;;4.32;;
63567;SDS011;49715;42.386;20.434;2022-07-29T13:19:31;8.55;;;4.10;;
63567;SDS011;49715;42.386;20.434;2022-07-29T13:22:02;5.40;;;4.10;;
63567;SDS011;49715;42.386;20.434;2022-07-29T13:24:30;9.40;;;4.28;;
63567;SDS011;49715;42.386;20.434;2022-07-29T13:27:00;6.72;;;3.80;;
63567;SDS011;49715;42.386;20.434;2022-07-29T13:29:26;5.57;;;3.60;;
63567;SDS011;49715;42.386;20.434;2022-07-29T13:31:53;6.25;;;3.65;;
63567;SDS011;49715;42.386;20.434;2022-07-29T13:34:20;7.07;;;3.45;;
63567;SDS011;49715;42.386;20.434;2022-07-29T13:36:49;6.47;;;3.70;;
63567;SDS011;49715;42.386;20.434;2022-07-29T13:39:15;5.72;;;3.45;;
63567;SDS011;49715;42.386;20.434;2022-07-29T13:41:43;5.18;;;3.25;;
63567;SDS011;49715;42.386;20.434;2022-07-29T13:44:10;8.07;;;3.20;;
63567;SDS011;49715;42.386;20.434;2022-07-29T13:46:36;7.70;;;3.60;;
63567;SDS011;49715;42.386;20.434;2022-07-29T13:49:03;5.15;;;3.40;;
63567;SDS011;49715;42.386;20.434;2022-07-29T13:51:29;5.35;;;3.35;;
63567;SDS011;49715;42.386;20.434;2022-07-29T13:53:55;4.72;;;3.30;;
63567;SDS011;49715;42.386;20.434;2022-07-29T13:56:25;5.03;;;3.03;;
63567;SDS011;49715;42.386;20.434;2022-07-29T13:58:53;4.20;;;3.13;;
63567;SDS011;49715;42.386;20.434;2022-07-29T14:01:21;5.85;;;3.15;;
63567;SDS011;49715;42.386;20.434;2022-07-29T14:03:47;6.65;;;3.00;;
63567;SDS011;49715;42.386;20.434;2022-07-29T14:06:15;5.75;;;3.33;;
63567;SDS011;49715;42.386;20.434;2022-07-29T14:08:41;3.63;;;3.15;;
63567;SDS011;49715;42.386;20.434;2022-07-29T14:11:07;4.65;;;3.10;;
63567;SDS011;49715;42.386;20.434;2022-07-29T14:13:34;4.85;;;3.17;;
63567;SDS011;49715;42.386;20.434;2022-07-29T14:16:01;4.22;;;3.05;;
63567;SDS011;49715;42.386;20.434;2022-07-29T14:18:31;5.70;;;3.20;;
63567;SDS011;49715;42.386;20.434;2022-07-29T14:21:01;5.07;;;3.15;;
63567;SDS011;49715;42.386;20.434;2022-07-29T14:23:28;5.35;;;2.95;;
63567;SDS011;49715;42.386;20.434;2022-07-29T14:25:55;10.40;;;3.15;;
63567;SDS011;49715;42.386;20.434;2022-07-29T14:28:21;6.07;;;3.45;;
63567;SDS011;49715;42.386;20.434;2022-07-29T14:30:47;4.07;;;3.10;;
63567;SDS011;49715;42.386;20.434;2022-07-29T14:33:14;3.90;;;3.00;;
63567;SDS011;49715;42.386;20.434;2022-07-29T14:35:41;6.05;;;3.20;;
63567;SDS011;49715;42.386;20.434;2022-07-29T14:38:07;4.32;;;2.75;;
63567;SDS011;49715;42.386;20.434;2022-07-29T14:40:34;4.25;;;2.90;;
63567;SDS011;49715;42.386;20.434;2022-07-29T14:43:00;4.45;;;2.75;;
63567;SDS011;49715;42.386;20.434;2022-07-29T14:45:27;4.05;;;2.85;;
63567;SDS011;49715;42.386;20.434;2022-07-29T14:47:54;4.55;;;2.85;;
63567;SDS011;49715;42.386;20.434;2022-07-29T14:50:21;6.15;;;2.75;;
63567;SDS011;49715;42.386;20.434;2022-07-29T14:52:47;3.78;;;2.70;;
63567;SDS011;49715;42.386;20.434;2022-07-29T14:55:14;4.80;;;2.90;;
63567;SDS011;49715;42.386;20.434;2022-07-29T14:57:41;3.95;;;2.65;;
63567;SDS011;49715;42.386;20.434;2022-07-29T15:00:07;4.45;;;2.65;;
63567;SDS011;49715;42.386;20.434;2022-07-29T15:02:35;7.00;;;2.75;;
63567;SDS011;49715;42.386;20.434;2022-07-29T15:05:02;5.53;;;2.60;;
63567;SDS011;49715;42.386;20.434;2022-07-29T15:07:29;4.70;;;2.42;;
63567;SDS011;49715;42.386;20.434;2022-07-29T15:09:56;4.03;;;2.50;;
63567;SDS011;49715;42.386;20.434;2022-07-29T15:12:22;6.32;;;2.28;;
63567;SDS011;49715;42.386;20.434;2022-07-29T15:14:48;5.53;;;2.75;;
63567;SDS011;49715;42.386;20.434;2022-07-29T15:17:15;3.67;;;2.35;;
63567;SDS011;49715;42.386;20.434;2022-07-29T15:19:42;5.25;;;2.58;;
63567;SDS011;49715;42.386;20.434;2022-07-29T15:22:09;4.40;;;2.60;;
63567;SDS011;49715;42.386;20.434;2022-07-29T15:24:35;4.53;;;2.50;;
63567;SDS011;49715;42.386;20.434;2022-07-29T15:27:01;4.25;;;2.50;;
63567;SDS011;49715;42.386;20.434;2022-07-29T15:29:28;4.53;;;2.42;;
63567;SDS011;49715;42.386;20.434;2022-07-29T15:31:56;7.85;;;2.10;;
63567;SDS011;49715;42.386;20.434;2022-07-29T15:34:23;5.53;;;2.20;;
63567;SDS011;49715;42.386;20.434;2022-07-29T15:36:50;2.72;;;2.20;;
63567;SDS011;49715;42.386;20.434;2022-07-29T15:39:18;2.40;;;2.20;;
63567;SDS011;49715;42.386;20.434;2022-07-29T15:41:46;3.17;;;2.15;;
63567;SDS011;49715;42.386;20.434;2022-07-29T15:44:13;7.82;;;2.47;;
63567;SDS011;49715;42.386;20.434;2022-07-29T15:46:47;5.70;;;2.38;;
63567;SDS011;49715;42.386;20.434;2022-07-29T15:49:29;3.28;;;2.17;;
63567;SDS011;49715;42.386;20.434;2022-07-29T15:52:00;5.85;;;2.20;;
63567;SDS011;49715;42.386;20.434;2022-07-29T15:54:29;3.97;;;2.38;;
63567;SDS011;49715;42.386;20.434;2022-07-29T15:56:55;5.88;;;2.22;;
63567;SDS011;49715;42.386;20.434;2022-07-29T15:59:22;5.30;;;2.50;;
63567;SDS011;49715;42.386;20.434;2022-07-29T16:01:49;4.80;;;2.50;;
63567;SDS011;49715;42.386;20.434;2022-07-29T16:04:15;3.00;;;2.10;;
63567;SDS011;49715;42.386;20.434;2022-07-29T16:06:42;4.07;;;2.60;;
63567;SDS011;49715;42.386;20.434;2022-07-29T16:09:10;4.35;;;2.65;;
63567;SDS011;49715;42.386;20.434;2022-07-29T16:11:36;3.15;;;2.25;;
63567;SDS011;49715;42.386;20.434;2022-07-29T16:14:03;7.30;;;2.60;;
63567;SDS011;49715;42.386;20.434;2022-07-29T16:16:30;5.47;;;2.28;;
63567;SDS011;49715;42.386;20.434;2022-07-29T16:18:56;7.18;;;2.75;;
63567;SDS011;49715;42.386;20.434;2022-07-29T16:21:24;4.65;;;2.53;;
63567;SDS011;49715;42.386;20.434;2022-07-29T16:23:51;7.13;;;2.55;;
63567;SDS011;49715;42.386;20.434;2022-07-29T16:26:18;4.35;;;2.10;;
63567;SDS011;49715;42.386;20.434;2022-07-29T16:28:45;6.13;;;2.58;;
63567;SDS011;49715;42.386;20.434;2022-07-29T16:31:11;4.28;;;2.25;;
63567;SDS011;49715;42.386;20.434;2022-07-29T16:33:39;4.90;;;2.35;;
63567;SDS011;49715;42.386;20.434;2022-07-29T16:36:05;5.15;;;2.67;;
63567;SDS011;49715;42.386;20.434;2022-07-29T16:38:32;12.15;;;3.42;;
63567;SDS011;49715;42.386;20.434;2022-07-29T16:40:59;9.60;;;3.20;;
63567;SDS011;49715;42.386;20.434;2022-07-29T16:43:25;11.93;;;2.97;;